createdAt,value
2022-09-28T00:00:23.850Z,98793.50
2022-09-28T00:02:57.660Z,98799.16
2022-09-28T00:05:32.808Z,98796.28
2022-09-28T00:07:59.673Z,98793.03
2022-09-28T00:10:26.692Z,98790.78
2022-09-28T00:12:57.208Z,98788.97
2022-09-28T00:15:24.679Z,98788.09
2022-09-28T00:18:01.498Z,98786.06
2022-09-28T00:20:28.193Z,98792.91
2022-09-28T00:22:58.070Z,98788.41
2022-09-28T00:25:25.058Z,98777.81
2022-09-28T00:27:53.655Z,98789.22
2022-09-28T00:30:20.523Z,98784.03
2022-09-28T00:32:47.198Z,98775.97
2022-09-28T00:35:14.179Z,98781.00
2022-09-28T00:37:40.949Z,98779.13
2022-09-28T00:40:10.802Z,98782.81
2022-09-28T00:42:37.522Z,98778.47
2022-09-28T00:45:05.118Z,98779.13
2022-09-28T00:47:52.055Z,98775.13
2022-09-28T00:50:39.971Z,98789.06
2022-09-28T00:53:21.506Z,98779.69
2022-09-28T00:56:03.676Z,98781.81
2022-09-28T00:58:38.411Z,98780.78
2022-09-28T01:01:13.223Z,98782.00
2022-09-28T01:03:48.581Z,98782.00
2022-09-28T01:06:28.305Z,98773.28
2022-09-28T01:09:03.065Z,98772.06
2022-09-28T01:11:38.211Z,98778.09
2022-09-28T01:14:11.898Z,98769.19
2022-09-28T01:17:17.955Z,98771.88
2022-09-28T01:20:15.384Z,98777.09
2022-09-28T01:23:15.389Z,98770.97
2022-09-28T01:26:11.869Z,98778.66
2022-09-28T01:28:48.090Z,98775.31
2022-09-28T01:31:21.490Z,98776.19
2022-09-28T01:34:15.951Z,98771.38
2022-09-28T01:37:01.593Z,98775.69
2022-09-28T01:39:48.449Z,98772.53
2022-09-28T01:42:27.660Z,98772.75
2022-09-28T01:45:07.440Z,98784.16
2022-09-28T01:47:40.951Z,98782.63
2022-09-28T01:50:18.349Z,98781.00
2022-09-28T01:53:09.699Z,98775.34
2022-09-28T01:55:50.699Z,98768.28
2022-09-28T01:58:46.027Z,98764.78
2022-09-28T02:01:28.175Z,98773.88
2022-09-28T02:04:16.983Z,98763.94
2022-09-28T02:06:58.779Z,98768.94
2022-09-28T02:09:47.143Z,98763.13
2022-09-28T02:12:23.025Z,98763.78
2022-09-28T02:15:01.898Z,98761.72
2022-09-28T02:17:29.201Z,98765.69
2022-09-28T02:19:56.223Z,98759.50
2022-09-28T02:22:43.944Z,98760.97
2022-09-28T02:25:24.863Z,98763.47
2022-09-28T02:28:02.143Z,98761.16
2022-09-28T02:30:38.209Z,98765.34
2022-09-28T02:33:32.439Z,98762.81
2022-09-28T02:36:01.501Z,98761.72
2022-09-28T02:38:28.229Z,98770.81
2022-09-28T02:42:02.717Z,98763.56
2022-09-28T02:44:53.671Z,98770.63
2022-09-28T02:48:16.052Z,98761.25
2022-09-28T02:51:36.146Z,98770.31
2022-09-28T02:54:21.357Z,98759.97
2022-09-28T02:57:09.769Z,98773.00
2022-09-28T03:00:17.695Z,98764.31
2022-09-28T03:03:17.968Z,98765.81
2022-09-28T03:06:29.586Z,98762.66
2022-09-28T03:09:20.321Z,98778.59
2022-09-28T03:11:56.783Z,98773.41
2022-09-28T03:14:24.011Z,98765.72
2022-09-28T03:16:51.048Z,98769.69
2022-09-28T03:19:27.983Z,98774.22
2022-09-28T03:21:55.599Z,98767.38
2022-09-28T03:24:22.444Z,98769.69
2022-09-28T03:26:49.219Z,98758.31
2022-09-28T03:29:16.235Z,98769.69
2022-09-28T03:31:44.122Z,98761.44
2022-09-28T03:34:11.048Z,98761.00
2022-09-28T03:36:37.820Z,98755.97
2022-09-28T03:39:04.627Z,98760.34
2022-09-28T03:41:31.357Z,98765.34
2022-09-28T03:43:58.105Z,98757.44
2022-09-28T03:46:24.943Z,98755.16
2022-09-28T03:48:51.620Z,98754.75
2022-09-28T03:51:18.306Z,98764.25
2022-09-28T03:53:48.115Z,98766.72
2022-09-28T03:56:16.082Z,98755.53
2022-09-28T03:58:43.455Z,98760.91
2022-09-28T04:01:17.524Z,98757.75
2022-09-28T04:03:46.288Z,98758.94
2022-09-28T04:06:14.480Z,98748.56
2022-09-28T04:08:41.304Z,98753.09
2022-09-28T04:11:08.022Z,98750.06
2022-09-28T04:13:34.814Z,98736.16
2022-09-28T04:16:02.450Z,98751.91
2022-09-28T04:18:29.813Z,98744.50
2022-09-28T04:21:19.598Z,98747.38
2022-09-28T04:23:48.785Z,98747.38
2022-09-28T04:26:30.406Z,98747.81
2022-09-28T04:29:15.644Z,98747.00
2022-09-28T04:31:49.612Z,98752.19
2022-09-28T04:34:21.007Z,98748.22
2022-09-28T04:36:49.386Z,98743.75
2022-09-28T04:39:21.970Z,98745.69
2022-09-28T04:41:49.573Z,98746.53
2022-09-28T04:44:16.383Z,98743.66
2022-09-28T04:46:43.994Z,98753.59
2022-09-28T04:49:11.528Z,98740.50
2022-09-28T04:51:38.226Z,98739.59
2022-09-28T04:54:05.024Z,98745.59
2022-09-28T04:56:31.704Z,98743.13
2022-09-28T04:58:58.530Z,98746.16
2022-09-28T05:36:35.675Z,98737.56
2022-09-28T05:52:37.505Z,98736.44
2022-09-28T05:55:09.529Z,98737.66
2022-09-28T06:19:28.966Z,98750.88
2022-09-28T06:27:18.331Z,98757.72
2022-09-28T07:10:15.532Z,98800.81
2022-09-28T07:53:38.592Z,98834.53
2022-09-28T08:37:11.262Z,98849.91
2022-09-28T08:39:38.273Z,98849.72
2022-09-28T08:42:25.180Z,98857.66
2022-09-28T08:44:59.011Z,98849.41
2022-09-28T08:48:04.077Z,98857.19
2022-09-28T08:50:38.691Z,98865.06
2022-09-28T08:54:06.954Z,98862.81
2022-09-28T08:57:04.487Z,98859.69
2022-09-28T08:59:59.856Z,98862.13
2022-09-28T09:02:39.476Z,98869.91
2022-09-28T09:05:14.673Z,98875.09
2022-09-28T09:08:37.357Z,98882.28
2022-09-28T09:12:08.196Z,98875.59
2022-09-28T09:15:32.272Z,98878.47
2022-09-28T09:18:46.790Z,98882.84
2022-09-28T09:22:03.102Z,98884.22
2022-09-28T09:24:55.145Z,98867.28
2022-09-28T09:28:17.315Z,98872.09
2022-09-28T09:31:26.633Z,98880.47
2022-09-28T09:34:35.662Z,98877.19
2022-09-28T09:37:24.786Z,98874.13
2022-09-28T09:40:44.640Z,98882.75
2022-09-28T09:43:44.094Z,98888.16
2022-09-28T09:46:36.957Z,98882.66
2022-09-28T09:49:33.511Z,98876.34
2022-09-28T09:52:42.292Z,98885.19
2022-09-28T09:55:36.160Z,98877.38
2022-09-28T09:58:21.746Z,98887.81
2022-09-28T10:00:55.072Z,98887.63
2022-09-28T10:03:30.512Z,98890.09
2022-09-28T10:06:17.837Z,98881.13
2022-09-28T10:09:01.372Z,98888.63
2022-09-28T10:11:43.941Z,98887.56
2022-09-28T10:14:27.918Z,98882.19
2022-09-28T10:16:58.656Z,98894.25
2022-09-28T10:19:35.185Z,98890.88
2022-09-28T10:22:06.394Z,98899.69
2022-09-28T10:24:47.309Z,98894.06
2022-09-28T10:27:24.126Z,98889.50
2022-09-28T10:30:44.074Z,98895.28
2022-09-28T10:33:48.559Z,98897.41
2022-09-28T10:36:17.947Z,98904.25
2022-09-28T10:38:48.725Z,98902.44
2022-09-28T10:41:20.113Z,98897.03
2022-09-28T10:44:08.717Z,98909.78
2022-09-28T10:46:39.153Z,98909.25
2022-09-28T10:49:18.757Z,98912.03
2022-09-28T10:51:56.534Z,98909.50
2022-09-28T10:54:29.626Z,98905.91
2022-09-28T10:57:00.884Z,98910.59
2022-09-28T10:59:30.589Z,98914.53
2022-09-28T11:02:25.989Z,98915.41
2022-09-28T11:05:03.599Z,98914.59
2022-09-28T11:07:44.594Z,98920.22
2022-09-28T11:10:28.523Z,98919.66
2022-09-28T11:12:56.894Z,98914.06
2022-09-28T11:15:33.866Z,98916.56
2022-09-28T11:18:32.343Z,98918.34
2022-09-28T11:21:19.211Z,98927.13
2022-09-28T11:24:20.259Z,98934.44
2022-09-28T11:26:52.931Z,98930.72
2022-09-28T11:29:57.679Z,98927.59
2022-09-28T11:32:39.490Z,98928.19
2022-09-28T11:35:07.318Z,98938.84
2022-09-28T11:38:07.953Z,98936.16
2022-09-28T11:41:02.487Z,98944.66
2022-09-28T11:44:20.589Z,98929.88
2022-09-28T11:47:51.541Z,98942.47
2022-09-28T11:50:57.356Z,98947.69
2022-09-28T11:53:48.937Z,98949.19
2022-09-28T11:56:41.811Z,98952.06
2022-09-28T11:59:31.853Z,98945.66
2022-09-28T12:02:19.662Z,98956.25
2022-09-28T12:04:51.163Z,98947.31
2022-09-28T12:07:47.731Z,98948.28
2022-09-28T12:10:51.350Z,98948.34
2022-09-28T12:13:39.111Z,98953.38
2022-09-28T12:17:05.055Z,98948.81
2022-09-28T12:20:22.735Z,98955.44
2022-09-28T12:23:15.068Z,98950.66
2022-09-28T12:26:11.137Z,98944.88
2022-09-28T12:29:26.932Z,98951.09
2022-09-28T12:32:30.781Z,98957.59
2022-09-28T13:57:31.136Z,98955.31
2022-09-28T14:18:26.769Z,98963.94
2022-09-28T14:22:13.446Z,98974.78
2022-09-28T14:25:24.161Z,98971.66
2022-09-28T14:28:30.554Z,98974.69
2022-09-28T14:30:59.095Z,98974.81
2022-09-28T14:33:32.060Z,98977.53
2022-09-28T14:36:42.381Z,98970.84
2022-09-28T14:39:50.550Z,98978.72
2022-09-28T14:48:22.476Z,98976.34
2022-09-28T14:50:52.911Z,98974.25
2022-09-28T15:13:30.532Z,98976.16
2022-09-28T15:16:17.573Z,98972.41
2022-09-28T16:32:28.479Z,99013.44
2022-09-28T16:43:43.405Z,99013.53
2022-09-28T17:00:06.547Z,99019.47
2022-09-28T17:02:46.295Z,99015.59
2022-09-28T17:05:19.046Z,99019.25
2022-09-28T17:08:03.848Z,99021.19
2022-09-28T17:11:09.686Z,99019.47
2022-09-28T17:13:35.950Z,99014.03
2022-09-28T17:16:11.029Z,99014.44
2022-09-28T17:35:23.595Z,99032.91
2022-09-28T17:37:51.171Z,99028.38
2022-09-28T17:43:12.294Z,99043.66
2022-09-28T17:45:41.049Z,99041.34
2022-09-28T17:56:31.687Z,99047.75
2022-09-28T18:20:57.871Z,99064.00
2022-09-28T18:31:37.587Z,99079.44
2022-09-28T18:34:04.567Z,99065.53
2022-09-28T18:36:35.630Z,99073.41
2022-09-28T18:39:05.517Z,99071.06
2022-09-28T18:49:45.934Z,99083.63
2022-09-28T20:00:57.067Z,99124.16
2022-09-28T20:06:17.067Z,99117.28
2022-09-28T20:11:32.433Z,99120.16
2022-09-28T20:16:46.478Z,99123.00
2022-09-28T20:24:39.891Z,99118.63
2022-09-28T20:27:08.974Z,99124.16
2022-09-28T20:32:17.862Z,99124.00
2022-09-28T20:34:48.510Z,99131.38
2022-09-28T20:37:17.766Z,99121.50
2022-09-28T20:39:46.294Z,99119.16
2022-09-28T20:44:56.313Z,99128.03
2022-09-28T20:50:12.021Z,99129.22
2022-09-28T20:52:44.891Z,99137.22
2022-09-28T20:55:15.639Z,99136.56
2022-09-28T20:57:42.504Z,99140.75
2022-09-28T21:00:12.638Z,99131.38
2022-09-28T21:02:48.555Z,99140.28
2022-09-28T21:05:34.508Z,99131.72
2022-09-28T21:08:02.120Z,99136.41
2022-09-28T21:10:32.973Z,99139.94
2022-09-28T21:13:02.459Z,99138.75
2022-09-28T21:15:32.801Z,99136.75
2022-09-28T21:17:59.779Z,99143.44
2022-09-28T21:20:32.153Z,99139.56
2022-09-28T21:23:24.735Z,99142.94
2022-09-28T21:26:15.260Z,99143.94
2022-09-28T21:28:44.708Z,99148.50
2022-09-28T21:31:12.938Z,99154.16
2022-09-28T21:33:54.851Z,99148.16
2022-09-28T21:36:27.375Z,99145.78
2022-09-28T21:38:58.242Z,99149.47
2022-09-28T22:05:53.070Z,99163.50
2022-09-28T22:08:21.485Z,99159.16
2022-09-28T22:11:13.160Z,99160.34
2022-09-28T22:13:57.856Z,99154.78
2022-09-28T22:16:29.562Z,99162.16
2022-09-28T22:18:57.884Z,99166.03
2022-09-28T22:21:34.162Z,99156.31
2022-09-28T22:24:05.182Z,99162.53
2022-09-28T22:26:35.080Z,99161.19
2022-09-28T22:29:09.572Z,99159.84
2022-09-28T22:31:40.969Z,99159.69
2022-09-28T22:34:09.085Z,99156.31
2022-09-28T22:36:36.268Z,99159.84
2022-09-28T22:39:03.854Z,99161.84
2022-09-28T22:41:31.802Z,99167.22
2022-09-28T22:43:59.153Z,99162.69
2022-09-28T22:46:31.946Z,99165.72
2022-09-28T22:49:50.392Z,99163.69
2022-09-28T22:52:17.527Z,99169.06
2022-09-28T22:54:45.673Z,99170.91
2022-09-28T22:57:12.471Z,99177.47
2022-09-28T22:59:39.225Z,99174.78
2022-09-28T23:02:06.414Z,99180.31
2022-09-28T23:04:33.153Z,99179.28
2022-09-28T23:06:59.851Z,99182.84
2022-09-28T23:09:26.448Z,99188.19
2022-09-28T23:11:53.090Z,99183.97
2022-09-28T23:14:22.935Z,99181.28
2022-09-28T23:16:49.770Z,99179.28
2022-09-28T23:19:16.909Z,99175.41
2022-09-28T23:21:43.682Z,99170.25
2022-09-28T23:24:11.131Z,99183.66
2022-09-28T23:26:37.771Z,99176.44
2022-09-28T23:29:04.875Z,99172.94
2022-09-28T23:31:33.226Z,99176.09
2022-09-28T23:34:06.629Z,99181.47
2022-09-28T23:36:34.800Z,99177.78
2022-09-28T23:39:02.851Z,99172.25
2022-09-28T23:41:30.071Z,99167.88
2022-09-28T23:43:56.792Z,99169.56
2022-09-28T23:46:23.614Z,99173.09
2022-09-28T23:48:50.523Z,99170.56
2022-09-28T23:51:17.410Z,99167.88
2022-09-28T23:53:44.783Z,99176.44
2022-09-28T23:56:12.389Z,99172.91
2022-09-28T23:58:46.340Z,99173.25
